Time;durP1;ratioP1;P1;durP2;ratioP2;P2;SDS_P1;SDS_P2;PMS_P1;PMS_P2;Temp;Humidity;BMP_temperature;BMP_pressure;BME280_temperature;BME280_humidity;BME280_pressure;Samples;Min_cycle;Max_cycle;Signal;HPM_P1;HPM_P2
2021/10/12 00:02:05;;;;;;;193.87;92.80;;;;;;;8.40;70.43;94357.22;1601164;87;21142;-57
2021/10/12 00:04:32;;;;;;;226.90;101.07;;;;;;;8.35;70.77;94357.79;1646945;87;21126;-59
2021/10/12 00:06:59;;;;;;;201.47;91.72;;;;;;;8.30;71.00;94352.09;1621370;88;21053;-59
2021/10/12 00:09:25;;;;;;;189.35;90.50;;;;;;;8.28;71.25;94349.78;1627459;87;21536;-59
2021/10/12 00:11:54;;;;;;;184.93;86.78;;;;;;;8.29;71.31;94348.57;1629425;86;21048;-57
2021/10/12 00:14:21;;;;;;;185.65;85.87;;;;;;;8.31;71.25;94344.81;1607079;87;21124;-59
2021/10/12 00:16:48;;;;;;;188.03;85.75;;;;;;;8.35;71.18;94344.09;1607582;88;21467;-59
2021/10/12 00:19:15;;;;;;;186.90;87.12;;;;;;;8.38;70.94;94343.20;1608589;87;21617;-59
2021/10/12 00:21:41;;;;;;;185.40;90.85;;;;;;;8.44;70.79;94338.67;1616473;88;21038;-59
2021/10/12 00:24:10;;;;;;;192.82;90.67;;;;;;;8.48;70.71;94344.05;1602844;88;21002;-58
2021/10/12 00:26:38;;;;;;;211.28;98.90;;;;;;;8.52;70.73;94338.61;1617859;88;21204;-59
2021/10/12 00:29:04;;;;;;;178.95;80.57;;;;;;;8.59;70.68;94330.14;1615963;88;21486;-60
2021/10/12 00:31:31;;;;;;;178.12;84.55;;;;;;;8.65;70.47;94334.45;1606157;87;21086;-57
2021/10/12 00:33:58;;;;;;;184.32;87.33;;;;;;;8.61;70.64;94326.34;1609989;87;21527;-57
2021/10/12 00:36:25;;;;;;;196.05;88.52;;;;;;;8.65;70.55;94334.45;1631363;87;21049;-58
2021/10/12 00:38:51;;;;;;;194.82;92.30;;;;;;;8.68;70.62;94335.71;1614590;87;21140;-60
2021/10/12 00:41:19;;;;;;;186.85;86.57;;;;;;;8.73;70.65;94324.76;1599543;87;21004;-57
2021/10/12 00:43:46;;;;;;;184.18;84.25;;;;;;;8.77;70.46;94334.40;1603786;87;21507;-58
2021/10/12 00:46:13;;;;;;;174.27;82.37;;;;;;;8.77;70.42;94328.91;1603835;88;21057;-58
2021/10/12 00:48:40;;;;;;;169.97;79.92;;;;;;;8.78;70.32;94319.48;1613220;88;21588;-58
2021/10/12 00:51:07;;;;;;;152.93;71.40;;;;;;;8.76;69.82;94320.53;1616712;87;21154;-58
2021/10/12 00:53:34;;;;;;;148.22;71.45;;;;;;;8.71;69.61;94317.59;1635725;87;21031;-58
2021/10/12 00:56:01;;;;;;;136.60;64.75;;;;;;;8.63;69.73;94318.44;1602774;87;20996;-58
2021/10/12 00:58:28;;;;;;;140.32;68.80;;;;;;;8.64;70.01;94314.48;1611268;87;21012;-58
2021/10/12 01:00:55;;;;;;;134.72;65.70;;;;;;;8.72;69.94;94313.04;1619043;87;21101;-58
2021/10/12 01:03:22;;;;;;;168.52;75.03;;;;;;;8.76;69.66;94310.93;1609162;88;21803;-58
2021/10/12 01:05:48;;;;;;;156.75;75.70;;;;;;;8.72;69.66;94303.44;1610749;88;21003;-57
2021/10/12 01:08:16;;;;;;;160.72;77.05;;;;;;;8.71;69.73;94300.54;1617766;87;21036;-59
2021/10/12 01:10:42;;;;;;;151.50;73.92;;;;;;;8.71;69.77;94308.77;1612657;87;21562;-58
2021/10/12 01:13:11;;;;;;;140.62;65.30;;;;;;;8.74;69.72;94302.39;1624462;88;21147;-57
2021/10/12 01:15:37;;;;;;;161.10;80.90;;;;;;;8.78;69.49;94294.79;1613554;88;21821;-58
2021/10/12 01:18:12;;;;;;;165.18;77.92;;;;;;;8.69;69.58;94298.07;1602116;88;21065;-58
2021/10/12 01:20:40;;;;;;;167.98;80.22;;;;;;;8.59;70.22;94295.12;1617089;87;21009;-58
2021/10/12 01:23:07;;;;;;;121.13;60.83;;;;;;;8.50;70.66;94287.58;1613575;87;21617;-58
2021/10/12 01:25:34;;;;;;;139.18;66.57;;;;;;;8.44;71.06;94292.70;1609510;87;21111;-57
2021/10/12 01:28:01;;;;;;;169.97;78.30;;;;;;;8.34;71.24;94283.63;1617245;88;21097;-58
2021/10/12 01:30:28;;;;;;;196.70;89.67;;;;;;;8.24;71.62;94286.12;1612641;88;21063;-57
2021/10/12 01:32:55;;;;;;;193.05;89.97;;;;;;;8.16;71.85;94279.92;1599932;87;21052;-58
2021/10/12 01:35:23;;;;;;;196.90;88.97;;;;;;;8.20;72.09;94287.44;1616910;87;21113;-58
2021/10/12 01:37:50;;;;;;;177.85;82.97;;;;;;;8.30;72.04;94280.25;1605329;88;21047;-58
2021/10/12 01:40:17;;;;;;;164.55;80.57;;;;;;;8.42;71.75;94274.56;1610986;88;21485;-58
2021/10/12 01:42:44;;;;;;;184.45;81.63;;;;;;;8.51;71.49;94276.78;1613529;87;21162;-58
2021/10/12 01:45:11;;;;;;;157.07;74.87;;;;;;;8.59;71.24;94280.78;1606172;87;21000;-58
2021/10/12 01:47:40;;;;;;;149.68;70.72;;;;;;;8.69;71.11;94272.80;1625975;87;21517;-58
2021/10/12 01:50:08;;;;;;;138.30;67.78;;;;;;;8.77;70.95;94263.09;1618539;88;21104;-57
2021/10/12 01:52:36;;;;;;;131.97;63.40;;;;;;;8.89;70.63;94260.90;1621360;87;21196;-58
2021/10/12 01:55:05;;;;;;;119.70;58.50;;;;;;;8.97;70.00;94261.56;1601813;87;21032;-59
2021/10/12 01:57:31;;;;;;;112.15;59.27;;;;;;;8.91;69.54;94262.59;1608686;88;21058;-58
2021/10/12 01:59:58;;;;;;;110.42;56.85;;;;;;;8.81;69.69;94266.47;1603429;88;21000;-58
2021/10/12 02:02:24;;;;;;;108.45;55.33;;;;;;;8.78;69.82;94261.88;1603717;87;21104;-59
2021/10/12 02:04:51;;;;;;;115.22;54.60;;;;;;;8.83;69.82;94261.30;1610149;87;21128;-58
2021/10/12 02:07:18;;;;;;;127.70;61.00;;;;;;;8.87;69.57;94255.69;1613391;87;21006;-57
2021/10/12 02:09:45;;;;;;;152.45;67.72;;;;;;;8.86;69.56;94256.31;1628804;87;21122;-57
2021/10/12 02:12:12;;;;;;;130.10;59.80;;;;;;;8.79;69.53;94255.19;1602613;87;21115;-57
2021/10/12 02:14:38;;;;;;;136.35;59.83;;;;;;;8.74;69.73;94248.91;1619034;87;21005;-57
2021/10/12 02:17:05;;;;;;;114.92;57.10;;;;;;;8.67;70.07;94246.44;1622958;87;21782;-57
2021/10/12 02:19:32;;;;;;;111.88;57.23;;;;;;;8.59;70.39;94246.52;1623919;87;21073;-57
2021/10/12 02:21:59;;;;;;;104.95;53.30;;;;;;;8.45;70.75;94242.91;1632592;87;21001;-59
2021/10/12 02:24:26;;;;;;;103.65;52.23;;;;;;;8.37;70.99;94244.96;1620482;88;21588;-59
2021/10/12 02:26:52;;;;;;;109.83;55.33;;;;;;;8.34;71.15;94248.59;1615480;88;21104;-59
2021/10/12 02:29:19;;;;;;;108.42;53.00;;;;;;;8.34;71.41;94246.64;1619040;88;21502;-58
2021/10/12 02:31:45;;;;;;;110.00;57.25;;;;;;;8.42;71.41;94246.53;1612677;89;21097;-58
2021/10/12 02:34:12;;;;;;;121.05;60.78;;;;;;;8.51;71.26;94234.88;1612841;88;21585;-58
2021/10/12 02:36:40;;;;;;;154.20;71.97;;;;;;;8.58;71.18;94238.13;1612517;88;21139;-59
2021/10/12 02:39:06;;;;;;;142.55;72.90;;;;;;;8.68;70.95;94232.11;1613500;87;21381;-58
2021/10/12 02:41:33;;;;;;;162.27;79.12;;;;;;;8.79;70.95;94237.98;1617189;87;21149;-58
2021/10/12 02:44:00;;;;;;;176.57;86.28;;;;;;;8.89;70.61;94233.47;1612869;87;21510;-58
2021/10/12 02:46:27;;;;;;;150.07;73.07;;;;;;;8.96;70.38;94235.34;1612810;87;21006;-58
2021/10/12 02:48:53;;;;;;;150.12;71.17;;;;;;;8.98;69.88;94234.28;1593459;87;21221;-59
2021/10/12 02:51:20;;;;;;;130.90;63.10;;;;;;;8.89;69.96;94232.84;1609495;89;21514;-58
2021/10/12 02:53:46;;;;;;;124.72;65.95;;;;;;;8.78;70.01;94233.09;1612745;89;21219;-57
2021/10/12 02:56:13;;;;;;;111.52;59.80;;;;;;;8.60;70.37;94232.97;1612639;89;21064;-59
2021/10/12 02:58:40;;;;;;;104.10;51.28;;;;;;;8.48;70.86;94232.44;1612840;88;21474;-59
2021/10/12 03:01:06;;;;;;;130.75;63.58;;;;;;;8.44;71.13;94233.15;1612837;89;21077;-58
2021/10/12 03:03:33;;;;;;;136.18;64.95;;;;;;;8.38;71.28;94237.68;1618952;87;21062;-58
2021/10/12 03:05:59;;;;;;;148.43;66.80;;;;;;;8.34;71.52;94230.78;1612699;87;21116;-58
2021/10/12 03:08:28;;;;;;;149.72;69.95;;;;;;;8.35;71.77;94229.58;1612752;89;21026;-58
2021/10/12 03:10:55;;;;;;;134.47;64.62;;;;;;;8.34;71.81;94230.20;1612834;87;21090;-58
2021/10/12 03:13:21;;;;;;;163.65;78.37;;;;;;;8.32;71.97;94227.14;1612917;87;21514;-58
2021/10/12 03:15:48;;;;;;;136.12;70.55;;;;;;;8.30;72.17;94224.08;1612834;89;21013;-59
2021/10/12 03:18:16;;;;;;;147.05;66.28;;;;;;;8.29;72.32;94219.03;1612795;89;21143;-59
2021/10/12 03:20:42;;;;;;;129.47;63.83;;;;;;;8.24;72.31;94220.98;1612638;87;21088;-59
2021/10/12 03:23:09;;;;;;;153.55;68.28;;;;;;;8.12;72.50;94218.42;1612975;89;21002;-57
2021/10/12 03:25:36;;;;;;;134.90;62.10;;;;;;;8.05;72.83;94215.91;1612788;89;21596;-58
2021/10/12 03:28:04;;;;;;;155.50;68.35;;;;;;;8.02;73.14;94216.02;1594681;87;21076;-57
2021/10/12 03:30:31;;;;;;;133.93;63.08;;;;;;;8.00;73.47;94223.91;1623833;87;21036;-58
2021/10/12 03:32:58;;;;;;;140.47;67.05;;;;;;;8.00;73.67;94215.70;1618896;86;21485;-59
2021/10/12 03:35:29;;;;;;;126.12;61.50;;;;;;;8.00;73.79;94219.22;1612971;89;21545;-58
2021/10/12 03:37:54;;;;;;;148.38;69.22;;;;;;;7.99;73.91;94218.28;1604685;87;21175;-57
2021/10/12 03:40:21;;;;;;;150.20;68.67;;;;;;;7.94;74.11;94216.89;1635940;87;21487;-58
2021/10/12 03:42:48;;;;;;;140.62;67.53;;;;;;;7.96;74.15;94219.95;1614581;87;21152;-58
2021/10/12 03:45:14;;;;;;;140.25;68.80;;;;;;;7.98;74.07;94207.94;1612751;89;21046;-59
2021/10/12 03:47:41;;;;;;;148.85;73.05;;;;;;;8.05;74.20;94213.16;1612754;89;21006;-57
2021/10/12 03:50:09;;;;;;;159.37;77.47;;;;;;;8.12;74.05;94214.31;1612896;89;21459;-57
2021/10/12 03:52:36;;;;;;;152.70;77.35;;;;;;;8.18;74.10;94211.19;1612743;89;21037;-58
2021/10/12 03:55:05;;;;;;;150.87;74.40;;;;;;;8.26;74.10;94211.09;1612801;89;21171;-58
2021/10/12 03:57:32;;;;;;;153.42;74.53;;;;;;;8.32;73.91;94205.22;1625080;88;21498;-58
2021/10/12 03:59:58;;;;;;;145.68;70.78;;;;;;;8.39;73.90;94202.21;1614197;87;21054;-58
2021/10/12 04:02:25;;;;;;;134.72;62.88;;;;;;;8.41;73.86;94203.89;1612828;87;21057;-59
2021/10/12 04:04:51;;;;;;;136.75;65.47;;;;;;;8.39;73.69;94200.84;1612906;87;21049;-59
2021/10/12 04:07:18;;;;;;;137.07;64.40;;;;;;;8.36;73.57;94197.62;1612789;89;21063;-57
2021/10/12 04:09:44;;;;;;;126.90;61.48;;;;;;;8.35;73.53;94198.06;1612884;87;21050;-59
2021/10/12 04:12:12;;;;;;;120.80;60.78;;;;;;;8.34;73.58;94196.53;1613017;89;21480;-60
2021/10/12 04:14:39;;;;;;;124.20;56.70;;;;;;;8.33;73.75;94197.16;1612931;87;21478;-58
2021/10/12 04:17:06;;;;;;;102.92;50.52;;;;;;;8.35;73.63;94198.06;1613007;89;21034;-58
2021/10/12 04:19:33;;;;;;;110.55;53.20;;;;;;;8.33;73.44;94189.52;1612928;89;22299;-59
2021/10/12 04:21:59;;;;;;;123.25;56.95;;;;;;;8.27;73.54;94185.22;1612979;89;20994;-59
2021/10/12 04:24:26;;;;;;;111.12;54.75;;;;;;;8.26;73.64;94189.16;1612890;87;21070;-57
2021/10/12 04:26:53;;;;;;;114.40;55.17;;;;;;;8.31;73.96;94187.25;1612796;89;21592;-59
2021/10/12 04:29:22;;;;;;;128.80;60.38;;;;;;;8.41;73.82;94191.56;1612861;89;21018;-58
2021/10/12 04:31:49;;;;;;;124.62;64.27;;;;;;;8.47;73.87;94193.87;1612915;89;21166;-58
2021/10/12 04:34:15;;;;;;;150.00;73.67;;;;;;;8.53;73.89;94194.08;1612949;89;21109;-58
2021/10/12 04:36:42;;;;;;;191.10;91.47;;;;;;;8.62;73.99;94192.16;1612990;89;21021;-59
2021/10/12 04:39:08;;;;;;;199.20;97.80;;;;;;;8.71;73.72;94196.34;1593291;89;21480;-59
2021/10/12 04:41:35;;;;;;;197.45;92.80;;;;;;;8.73;73.55;94188.42;1574667;89;21573;-59
2021/10/12 04:44:03;;;;;;;196.63;92.35;;;;;;;8.73;73.55;94192.54;1625287;87;21867;-59
2021/10/12 04:46:30;;;;;;;203.73;99.17;;;;;;;8.75;73.79;94186.59;1613963;88;21002;-59
2021/10/12 04:48:58;;;;;;;200.38;95.38;;;;;;;8.84;73.74;94191.52;1613004;89;21502;-58
2021/10/12 04:51:25;;;;;;;187.62;90.45;;;;;;;8.95;73.55;94191.89;1612785;89;21045;-59
2021/10/12 04:53:52;;;;;;;183.40;96.53;;;;;;;9.06;73.38;94186.77;1612914;89;21159;-58
2021/10/12 04:56:21;;;;;;;200.65;111.37;;;;;;;9.16;73.21;94191.07;1612890;87;21162;-59
2021/10/12 04:58:47;;;;;;;184.67;99.15;;;;;;;9.22;72.83;94192.03;1612933;89;21474;-58
2021/10/12 05:01:14;;;;;;;167.70;89.77;;;;;;;9.25;72.46;94195.23;1612905;89;21057;-59
2021/10/12 05:03:40;;;;;;;144.65;75.67;;;;;;;9.17;72.42;94192.59;1612740;87;21022;-58
2021/10/12 05:06:07;;;;;;;118.72;65.45;;;;;;;9.07;72.78;94193.17;1612853;89;21517;-59
2021/10/12 05:08:34;;;;;;;108.37;60.55;;;;;;;9.05;73.05;94196.97;1612832;87;21516;-58
2021/10/12 05:11:02;;;;;;;124.50;64.42;;;;;;;9.06;72.83;94193.64;1593360;87;21113;-59
2021/10/12 05:13:30;;;;;;;142.13;73.07;;;;;;;9.01;72.99;94194.20;1612958;89;21026;-58
2021/10/12 05:15:59;;;;;;;152.50;79.03;;;;;;;8.99;73.13;94196.62;1612771;87;21006;-57
2021/10/12 05:18:31;;;;;;;151.53;81.30;;;;;;;8.95;73.56;94201.49;1612769;87;21078;-60
2021/10/12 05:20:55;;;;;;;134.32;71.25;;;;;;;8.97;73.67;94210.03;1612440;87;21756;-59
2021/10/12 05:23:23;;;;;;;127.02;70.52;;;;;;;8.95;73.52;94198.75;1612702;89;21056;-59
2021/10/12 05:25:50;;;;;;;111.15;64.65;;;;;;;8.91;73.67;94207.73;1612865;89;21049;-58
2021/10/12 05:28:17;;;;;;;112.90;64.53;;;;;;;8.85;73.74;94208.16;1612747;89;21139;-60
2021/10/12 05:30:44;;;;;;;102.60;59.88;;;;;;;8.78;74.12;94206.28;1624732;87;21085;-60
2021/10/12 05:33:14;;;;;;;110.10;59.63;;;;;;;8.79;74.46;94202.33;1648881;85;21075;-62
2021/10/12 05:35:41;;;;;;;111.80;60.28;;;;;;;8.85;74.62;94207.38;1645955;84;20974;-61
2021/10/12 05:38:10;;;;;;;107.92;59.98;;;;;;;8.89;74.53;94206.04;1648507;85;21085;-60
2021/10/12 05:40:36;;;;;;;99.62;57.23;;;;;;;8.92;74.57;94210.63;1647558;85;21023;-62
2021/10/12 05:43:04;;;;;;;100.47;59.05;;;;;;;8.90;74.33;94208.94;1647744;87;21058;-61
2021/10/12 05:45:32;;;;;;;85.53;52.15;;;;;;;8.89;74.42;94214.27;1647884;85;21772;-60
2021/10/12 05:47:59;;;;;;;98.33;53.17;;;;;;;8.90;74.58;94215.17;1629624;86;20971;-60
2021/10/12 05:50:26;;;;;;;101.20;54.13;;;;;;;8.90;74.49;94208.32;1651489;85;21053;-56
2021/10/12 05:53:08;;;;;;;114.60;60.73;;;;;;;8.92;74.75;94216.86;1635523;86;21969;-59
2021/10/12 05:55:34;;;;;;;98.95;55.40;;;;;;;9.00;74.71;94218.73;1620220;87;21075;-62
2021/10/12 05:58:06;;;;;;;93.33;50.83;;;;;;;9.02;74.77;94219.83;1638590;86;21862;-63
2021/10/12 06:00:21;;;;;;;88.67;47.73;;;;;;;9.05;74.94;94222.28;1658415;85;20975;-61
2021/10/12 06:02:48;;;;;;;89.87;49.42;;;;;;;9.03;74.80;94226.09;1638320;83;21026;-61
2021/10/12 06:05:15;;;;;;;85.70;45.28;;;;;;;8.96;75.03;94223.59;1634219;86;21073;-60
2021/10/12 06:07:41;;;;;;;78.50;44.98;;;;;;;8.91;75.18;94220.07;1627828;85;21638;-61
2021/10/12 06:10:09;;;;;;;77.40;47.05;;;;;;;8.87;75.40;94223.56;1634952;85;21203;-61
2021/10/12 06:12:36;;;;;;;61.65;33.65;;;;;;;8.88;75.69;94229.80;1638086;85;21046;-61
2021/10/12 06:15:03;;;;;;;49.48;29.95;;;;;;;8.91;75.75;94233.78;1643268;85;21496;-62
2021/10/12 06:17:30;;;;;;;55.65;32.50;;;;;;;8.94;75.62;94221.31;1637218;85;21042;-66
2021/10/12 06:19:57;;;;;;;59.53;33.45;;;;;;;8.97;75.46;94221.01;1624768;85;21192;-61
2021/10/12 06:22:23;;;;;;;63.83;36.93;;;;;;;8.99;75.55;94225.44;1629549;85;21214;-63
2021/10/12 06:24:50;;;;;;;56.92;33.53;;;;;;;9.01;75.54;94221.04;1625374;85;21069;-62
2021/10/12 06:27:19;;;;;;;75.75;42.95;;;;;;;9.04;75.52;94226.25;1625666;85;20999;-60
2021/10/12 06:29:47;;;;;;;61.63;34.83;;;;;;;9.05;75.69;94227.77;1621165;85;21056;-60
2021/10/12 06:32:14;;;;;;;46.70;28.75;;;;;;;9.05;75.37;94229.89;1646588;85;20987;-66
2021/10/12 06:34:41;;;;;;;50.80;30.43;;;;;;;9.03;75.48;94227.46;1636560;85;21132;-62
2021/10/12 06:37:07;;;;;;;56.28;34.83;;;;;;;8.93;75.43;94234.88;1636271;85;21516;-62
2021/10/12 06:39:35;;;;;;;54.48;32.75;;;;;;;8.89;75.78;94234.84;1638409;85;21029;-60
2021/10/12 06:42:03;;;;;;;45.38;29.12;;;;;;;8.95;75.97;94230.30;1633988;85;21011;-59
2021/10/12 06:44:30;;;;;;;32.08;21.95;;;;;;;9.04;75.65;94230.36;1636144;86;21048;-59
2021/10/12 06:46:56;;;;;;;28.17;19.27;;;;;;;9.06;74.75;94227.93;1638180;85;22620;-60
2021/10/12 06:49:23;;;;;;;25.57;17.55;;;;;;;8.96;74.56;94229.08;1632401;85;21044;-59
2021/10/12 06:51:50;;;;;;;21.77;14.75;;;;;;;8.94;74.76;94239.15;1633863;85;21143;-62
2021/10/12 06:54:17;;;;;;;23.98;15.85;;;;;;;8.94;74.20;94231.52;1626184;85;21106;-60
2021/10/12 06:56:43;;;;;;;23.18;17.67;;;;;;;8.89;74.03;94237.59;1622710;85;21553;-62
2021/10/12 06:59:11;;;;;;;26.93;17.67;;;;;;;8.82;74.73;94235.71;1643971;86;21239;-63
2021/10/12 07:01:39;;;;;;;26.35;18.52;;;;;;;8.83;74.80;94228.39;1631967;85;21906;-60
2021/10/12 07:04:05;;;;;;;29.20;20.97;;;;;;;8.83;74.92;94233.88;1616271;86;21101;-62
2021/10/12 07:06:33;;;;;;;24.57;18.48;;;;;;;8.85;75.14;94242.44;1638413;85;21049;-60
2021/10/12 07:09:00;;;;;;;21.80;16.67;;;;;;;8.88;74.74;94240.17;1637572;85;21109;-63
2021/10/12 07:11:27;;;;;;;22.52;15.95;;;;;;;8.84;74.63;94245.00;1621968;84;21090;-63
2021/10/12 07:13:55;;;;;;;30.27;21.23;;;;;;;8.82;74.16;94241.19;1642841;85;20926;-62
2021/10/12 07:16:22;;;;;;;26.77;19.50;;;;;;;8.75;74.20;94239.47;1634581;85;21113;-57
2021/10/12 07:18:50;;;;;;;38.67;23.05;;;;;;;8.70;74.32;94244.17;1630310;86;21484;-61
2021/10/12 07:21:17;;;;;;;24.55;18.98;;;;;;;8.68;74.67;94237.59;1637278;85;21046;-58
2021/10/12 07:23:45;;;;;;;25.95;18.12;;;;;;;8.69;74.70;94242.64;1633400;85;21488;-56
2021/10/12 07:26:11;;;;;;;22.22;16.12;;;;;;;8.69;74.92;94243.23;1632031;85;21180;-62
2021/10/12 07:28:38;;;;;;;22.15;14.18;;;;;;;8.69;75.05;94241.86;1637759;85;21740;-61
2021/10/12 07:31:05;;;;;;;20.92;14.25;;;;;;;8.71;74.81;94244.33;1638101;85;20982;-60
2021/10/12 07:33:32;;;;;;;24.00;15.75;;;;;;;8.74;74.68;94246.77;1630290;85;21072;-58
2021/10/12 07:35:59;;;;;;;24.50;17.45;;;;;;;8.74;74.17;94243.42;1638662;85;21450;-59
2021/10/12 07:38:26;;;;;;;24.40;18.55;;;;;;;8.68;74.33;94245.22;1656370;85;21053;-60
2021/10/12 07:40:54;;;;;;;29.10;19.05;;;;;;;8.64;74.20;94240.45;1628123;85;22277;-63
2021/10/12 07:43:21;;;;;;;21.70;14.13;;;;;;;8.55;74.72;94245.88;1644958;84;21518;-59
2021/10/12 07:45:49;;;;;;;27.90;17.80;;;;;;;8.63;74.99;94238.92;1639875;84;20972;-60
2021/10/12 07:48:18;;;;;;;22.02;14.30;;;;;;;8.72;74.87;94237.63;1636182;85;21127;-61
2021/10/12 07:50:45;;;;;;;16.93;12.70;;;;;;;8.77;74.85;94234.92;1632974;85;21289;-59
2021/10/12 07:53:12;;;;;;;22.70;15.68;;;;;;;8.78;74.55;94241.31;1641038;85;21061;-61
2021/10/12 07:58:13;;;;;;;17.55;13.00;;;;;;;8.60;74.48;94237.08;1633173;85;21050;-65
2021/10/12 08:00:43;;;;;;;17.07;11.85;;;;;;;8.51;74.07;94235.66;1634004;85;21144;-62
2021/10/12 08:03:10;;;;;;;21.07;14.10;;;;;;;8.40;74.35;94228.41;1622877;86;21574;-58
2021/10/12 08:05:37;;;;;;;17.07;11.57;;;;;;;8.30;74.80;94232.89;1629630;85;21064;-59
2021/10/12 08:08:05;;;;;;;28.73;20.95;;;;;;;8.28;74.85;94231.95;1659640;85;21118;-59
2021/10/12 08:10:33;;;;;;;14.75;11.45;;;;;;;8.31;75.17;94229.72;1661133;85;21157;-62
2021/10/12 08:13:09;;;;;;;15.08;11.08;;;;;;;8.30;74.96;94236.41;1639824;85;21157;-62
2021/10/12 08:15:35;;;;;;;16.07;12.88;;;;;;;8.24;75.01;94230.56;1633810;85;21629;-61
2021/10/12 08:18:02;;;;;;;18.00;13.28;;;;;;;8.15;75.16;94229.08;1635999;85;21047;-64
2021/10/12 08:20:29;;;;;;;22.05;15.70;;;;;;;8.13;75.55;94233.64;1639400;85;21481;-64
2021/10/12 08:22:55;;;;;;;21.48;13.85;;;;;;;8.15;75.36;94233.97;1642545;85;21106;-60
2021/10/12 08:25:22;;;;;;;20.65;14.60;;;;;;;8.13;75.71;94235.02;1648292;85;22560;-60
2021/10/12 08:27:49;;;;;;;15.50;11.68;;;;;;;8.07;76.04;94223.07;1646388;85;21055;-64
2021/10/12 08:30:16;;;;;;;18.60;13.50;;;;;;;8.11;75.75;94223.70;1649727;85;21014;-60
2021/10/12 08:32:43;;;;;;;18.60;13.00;;;;;;;8.12;75.71;94225.27;1654152;85;21366;-61
2021/10/12 08:35:10;;;;;;;19.20;14.63;;;;;;;8.14;75.83;94222.06;1638228;85;21133;-61
2021/10/12 08:37:38;;;;;;;60.12;34.00;;;;;;;8.15;75.93;94215.37;1647085;85;21312;-59
2021/10/12 08:40:13;;;;;;;20.25;14.60;;;;;;;8.12;76.18;94214.31;1636684;85;21090;-64
2021/10/12 08:42:47;;;;;;;19.87;12.93;;;;;;;8.13;76.17;94221.31;1628962;85;21561;-60
2021/10/12 08:45:15;;;;;;;15.95;10.78;;;;;;;8.10;76.22;94223.55;1630195;85;21558;-61
2021/10/12 08:47:43;;;;;;;15.30;12.18;;;;;;;8.09;76.13;94219.91;1642123;84;21078;-63
2021/10/12 08:50:15;;;;;;;14.58;10.88;;;;;;;8.14;76.31;94224.22;1646699;85;21160;-61
2021/10/12 08:52:47;;;;;;;17.25;11.70;;;;;;;8.23;76.18;94217.45;1630098;85;21065;-60
2021/10/12 08:55:14;;;;;;;20.68;13.28;;;;;;;8.25;75.93;94219.14;1642254;85;21107;-63
2021/10/12 08:57:45;;;;;;;18.25;13.98;;;;;;;8.29;75.77;94217.04;1627288;85;21008;-62
2021/10/12 09:00:19;;;;;;;16.55;12.73;;;;;;;8.35;75.56;94214.50;1642089;85;21066;-60
2021/10/12 09:05:59;;;;;;;11.38;9.10;;;;;;;8.50;74.96;94219.64;1633014;85;21090;-64
2021/10/12 09:08:35;;;;;;;18.12;14.23;;;;;;;8.49;75.03;94216.16;1645702;84;21429;-60
2021/10/12 09:11:04;;;;;;;15.75;10.38;;;;;;;8.49;74.98;94216.75;1642200;85;21066;-59
2021/10/12 09:13:45;;;;;;;12.33;9.63;;;;;;;8.54;74.63;94221.05;1634675;85;21081;-61
2021/10/12 09:16:15;;;;;;;12.53;10.00;;;;;;;8.62;74.42;94211.97;1637613;85;21501;-61
2021/10/12 09:18:55;;;;;;;19.05;12.85;;;;;;;8.56;74.37;94212.37;1643122;84;21445;-63
2021/10/12 09:21:26;;;;;;;19.90;14.35;;;;;;;8.53;74.79;94207.19;1635033;85;21410;-62
2021/10/12 09:24:19;;;;;;;22.67;14.33;;;;;;;8.60;74.94;94198.70;1656750;85;21148;-64
2021/10/12 09:26:49;;;;;;;20.85;12.68;;;;;;;8.62;75.04;94194.90;1628270;84;21049;-59
2021/10/12 09:29:29;;;;;;;16.00;11.10;;;;;;;8.65;74.89;94196.73;1639470;85;21785;-59
2021/10/12 09:31:55;;;;;;;15.45;10.65;;;;;;;8.69;74.71;94198.77;1630092;85;21136;-62
2021/10/12 09:34:23;;;;;;;16.90;11.18;;;;;;;8.70;74.39;94200.89;1641843;85;21038;-58
2021/10/12 09:36:51;;;;;;;15.80;10.68;;;;;;;8.66;74.34;94198.89;1634119;85;21074;-61
2021/10/12 09:39:38;;;;;;;14.18;9.78;;;;;;;8.65;74.48;94196.73;1635351;86;21057;-61
2021/10/12 09:42:08;;;;;;;13.85;9.53;;;;;;;8.63;74.47;94186.08;1651635;85;21931;-62
2021/10/12 09:44:40;;;;;;;14.95;10.60;;;;;;;8.57;74.59;94187.26;1632155;85;21503;-61
2021/10/12 09:47:14;;;;;;;24.25;20.68;;;;;;;8.54;74.98;94184.05;1629812;85;21093;-61
2021/10/12 09:49:42;;;;;;;17.05;12.43;;;;;;;8.60;74.87;94187.73;1642797;85;21069;-63
2021/10/12 09:52:13;;;;;;;18.73;12.37;;;;;;;8.64;75.01;94190.34;1619860;85;21485;-61
2021/10/12 09:54:46;;;;;;;16.65;11.65;;;;;;;8.68;74.62;94189.02;1631351;84;22660;-59
2021/10/12 09:57:12;;;;;;;18.60;12.78;;;;;;;8.71;74.61;94184.00;1634253;85;21520;-65
2021/10/12 09:59:39;;;;;;;12.63;10.25;;;;;;;8.71;74.53;94178.52;1634686;85;20994;-61
2021/10/12 10:02:06;;;;;;;22.80;11.03;;;;;;;8.69;74.45;94178.80;1628443;84;21087;-59
2021/10/12 10:04:33;;;;;;;13.98;9.20;;;;;;;8.72;74.23;94174.56;1631938;85;21213;-64
2021/10/12 10:07:07;;;;;;;15.93;10.85;;;;;;;8.82;74.24;94170.63;1630787;85;21237;-59
2021/10/12 10:09:35;;;;;;;20.27;14.13;;;;;;;8.88;73.73;94162.75;1638374;85;21537;-65
2021/10/12 10:12:06;;;;;;;9.70;7.83;;;;;;;8.93;73.11;94171.01;1631533;84;21997;-59
2021/10/12 10:14:32;;;;;;;24.70;14.30;;;;;;;8.92;71.67;94168.11;1593047;88;22100;-62
2021/10/12 10:17:00;;;;;;;27.48;16.17;;;;;;;8.81;71.26;94168.36;1637032;85;21049;-55
2021/10/12 10:19:36;;;;;;;19.80;11.75;;;;;;;8.70;71.96;94164.65;1619073;86;22333;-60
2021/10/12 10:22:04;;;;;;;17.32;9.38;;;;;;;8.65;72.01;94160.34;1639809;85;21493;-64
2021/10/12 10:24:55;;;;;;;8.15;7.12;;;;;;;8.61;71.58;94159.10;1656335;85;21562;-58
2021/10/12 10:27:34;;;;;;;9.68;8.33;;;;;;;8.59;71.27;94155.30;1636779;84;21553;-62
2021/10/12 10:30:33;;;;;;;15.23;10.35;;;;;;;8.63;71.31;94148.45;1634943;85;21147;-60
2021/10/12 10:33:05;;;;;;;12.63;9.05;;;;;;;8.59;71.10;94158.78;1626264;86;21106;-60
2021/10/12 10:35:42;;;;;;;9.55;7.33;;;;;;;8.62;70.44;94152.41;1633099;85;21109;-63
2021/10/12 10:38:28;;;;;;;7.45;6.40;;;;;;;8.69;70.05;94143.93;1657441;85;21114;-60
2021/10/12 10:41:11;;;;;;;8.45;6.87;;;;;;;8.73;69.43;94143.18;1652889;85;21506;-60
2021/10/12 10:43:56;;;;;;;10.53;7.83;;;;;;;8.67;69.67;94141.47;1648433;85;21121;-62
2021/10/12 10:46:36;;;;;;;9.98;7.42;;;;;;;8.66;69.37;94138.57;1644652;85;21208;-63
2021/10/12 10:49:19;;;;;;;9.28;7.90;;;;;;;8.61;69.40;94130.94;1642336;86;21079;-60
2021/10/12 10:52:07;;;;;;;10.98;8.15;;;;;;;8.65;69.82;94128.19;1633675;84;21026;-61
2021/10/12 10:54:43;;;;;;;8.93;7.80;;;;;;;8.78;69.89;94123.39;1631726;85;21072;-64
2021/10/12 10:57:20;;;;;;;16.00;10.90;;;;;;;8.85;70.56;94134.70;1642160;85;21171;-61
2021/10/12 11:00:16;;;;;;;13.25;9.93;;;;;;;8.87;70.37;94119.33;1639404;85;21137;-59
2021/10/12 11:02:45;;;;;;;10.72;8.43;;;;;;;8.95;70.74;94119.20;1639178;83;21030;-60
2021/10/12 11:05:35;;;;;;;8.75;6.90;;;;;;;9.02;69.94;94127.14;1625248;86;21019;-62
2021/10/12 11:08:18;;;;;;;6.22;5.65;;;;;;;9.00;69.06;94119.97;1651957;85;21095;-58
2021/10/12 11:11:03;;;;;;;9.18;6.42;;;;;;;8.90;68.75;94113.69;1638535;85;21022;-64
2021/10/12 11:13:36;;;;;;;4.30;4.00;;;;;;;8.86;68.77;94117.81;1622932;85;21515;-57
2021/10/12 11:16:12;;;;;;;6.83;4.70;;;;;;;8.80;68.11;94120.21;1633661;85;21134;-60
2021/10/12 11:18:42;;;;;;;5.25;4.80;;;;;;;8.77;68.23;94119.13;1638236;85;21414;-57
2021/10/12 11:21:11;;;;;;;5.53;4.83;;;;;;;8.82;68.50;94117.16;1635253;85;21034;-59
2021/10/12 11:23:41;;;;;;;5.95;5.25;;;;;;;8.83;68.23;94107.71;1610319;85;21110;-58
2021/10/12 11:26:12;;;;;;;9.85;6.45;;;;;;;8.86;68.54;94102.72;1632360;85;21165;-58
2021/10/12 11:28:43;;;;;;;6.55;5.40;;;;;;;8.87;68.51;94104.84;1635111;85;21490;-60
2021/10/12 11:31:12;;;;;;;7.67;5.72;;;;;;;8.84;68.48;94101.02;1648131;85;21053;-62
2021/10/12 11:33:44;;;;;;;8.33;6.20;;;;;;;8.81;68.12;94104.66;1634910;85;21055;-61
2021/10/12 11:36:14;;;;;;;7.03;6.22;;;;;;;8.75;68.00;94106.47;1631253;85;21136;-61